createdAt,value
2018-02-14T00:03:03.234Z,100833.70
2018-02-14T00:07:57.700Z,100829.80
2018-02-14T00:12:51.976Z,100840.33
2018-02-14T00:17:46.272Z,100840.81
2018-02-14T00:22:40.572Z,100849.03
2018-02-14T00:27:34.875Z,100845.60
2018-02-14T00:32:29.192Z,100838.67
2018-02-14T00:37:23.478Z,100844.80
2018-02-14T00:42:17.762Z,100851.76
2018-02-14T00:47:12.272Z,100851.38
2018-02-14T00:52:06.798Z,100854.00
2018-02-14T00:57:01.699Z,100856.20
2018-02-14T01:01:57.033Z,100863.58
2018-02-14T01:06:51.433Z,100870.57
2018-02-14T01:11:46.096Z,100880.58
2018-02-14T01:16:41.159Z,100871.51
2018-02-14T01:21:35.235Z,100875.88
2018-02-14T01:26:29.604Z,100876.77
2018-02-14T01:31:24.866Z,100891.58
2018-02-14T01:36:19.378Z,100891.22
2018-02-14T01:41:13.934Z,100900.36
2018-02-14T01:46:08.974Z,100909.50
2018-02-14T01:51:04.038Z,100915.20
2018-02-14T01:55:58.319Z,100919.14
2018-02-14T02:00:52.631Z,100929.14
2018-02-14T02:05:47.186Z,100928.28
2018-02-14T02:10:42.357Z,100924.84
2018-02-14T02:15:36.618Z,100925.28
2018-02-14T02:20:36.734Z,100927.84
2018-02-14T02:25:31.184Z,100924.82
2018-02-14T02:30:26.223Z,100926.52
2018-02-14T02:35:21.504Z,100933.86
2018-02-14T02:40:31.869Z,100936.48
2018-02-14T02:45:26.797Z,100912.67
2018-02-14T02:50:21.104Z,100918.34
2018-02-14T02:55:15.425Z,100920.04
2018-02-14T03:00:09.619Z,100923.11
2018-02-14T03:05:03.927Z,100922.28
2018-02-14T03:09:58.204Z,100933.99
2018-02-14T03:14:52.489Z,100927.09
2018-02-14T03:19:47.892Z,100944.89
2018-02-14T03:24:42.162Z,100949.23
2018-02-14T03:29:36.481Z,100939.72
2018-02-14T03:34:30.761Z,100945.79
2018-02-14T03:39:25.073Z,100957.03
2018-02-14T03:44:19.638Z,100956.64
2018-02-14T03:49:13.979Z,100957.53
2018-02-14T03:54:08.292Z,100968.40
2018-02-14T03:59:02.606Z,100974.45
2018-02-14T04:03:56.879Z,100979.22
2018-02-14T04:08:51.192Z,100982.29
2018-02-14T04:13:45.474Z,100983.19
2018-02-14T04:18:39.878Z,101004.83
2018-02-14T04:23:33.975Z,101010.90
2018-02-14T04:28:31.973Z,101009.64
2018-02-14T04:33:26.885Z,101015.30
2018-02-14T04:38:21.421Z,101027.42
2018-02-14T04:43:15.826Z,101018.35
2018-02-14T04:48:10.909Z,101027.88
2018-02-14T04:53:05.198Z,101034.83
2018-02-14T04:57:59.800Z,101026.14
2018-02-14T05:02:54.166Z,101041.72
2018-02-14T05:07:49.529Z,101052.54
2018-02-14T05:12:45.396Z,101052.55
2018-02-14T05:17:39.842Z,101050.34
2018-02-14T05:22:34.884Z,101049.48
2018-02-14T05:27:29.478Z,101050.35
2018-02-14T05:32:24.228Z,101047.33
2018-02-14T05:37:18.724Z,101041.28
2018-02-14T05:42:12.998Z,101057.72
2018-02-14T05:47:07.429Z,101064.19
2018-02-14T05:52:01.722Z,101060.32
2018-02-14T05:56:56.015Z,101068.11
2018-02-14T06:01:50.554Z,101072.87
2018-02-14T06:06:45.052Z,101067.27
2018-02-14T06:11:39.651Z,101068.14
2018-02-14T06:16:34.309Z,101067.30
2018-02-14T06:21:29.485Z,101073.36
2018-02-14T06:26:23.791Z,101082.87
2018-02-14T06:31:18.077Z,101094.13
2018-02-14T06:36:12.394Z,101088.52
2018-02-14T06:41:06.666Z,101085.05
2018-02-14T06:46:01.017Z,101082.42
2018-02-14T06:50:55.654Z,101081.13
2018-02-14T06:55:51.343Z,101099.73
2018-02-14T07:00:45.998Z,101111.39
2018-02-14T07:05:40.420Z,101111.36
2018-02-14T07:10:34.697Z,101117.44
2018-02-14T07:15:29.752Z,101131.67
2018-02-14T07:20:25.165Z,101146.39
2018-02-14T07:25:19.824Z,101158.94
2018-02-14T07:30:14.485Z,101145.48
2018-02-14T07:35:08.901Z,101162.34
2018-02-14T07:40:03.175Z,101152.78
2018-02-14T07:44:57.448Z,101151.45
2018-02-14T07:49:52.911Z,101161.41
2018-02-14T07:54:47.204Z,101169.03
2018-02-14T07:59:42.029Z,101166.80
2018-02-14T08:04:36.312Z,101177.62
2018-02-14T08:09:30.706Z,101171.38
2018-02-14T08:14:25.073Z,101173.62
2018-02-14T08:19:19.139Z,101164.11
2018-02-14T08:24:13.425Z,101161.02
2018-02-14T08:29:07.957Z,101169.22
2018-02-14T08:34:02.372Z,101171.80
2018-02-14T08:38:57.736Z,101178.41
2018-02-14T08:43:52.895Z,101199.48
2018-02-14T08:48:47.214Z,101193.85
2018-02-14T08:53:41.758Z,101193.25
2018-02-14T08:58:36.943Z,101185.21
2018-02-14T09:03:31.220Z,101195.11
2018-02-14T09:08:25.278Z,101190.75
2018-02-14T09:13:20.342Z,101193.11
2018-02-14T09:18:14.888Z,101207.39
2018-02-14T09:23:09.562Z,101216.37
2018-02-14T09:28:04.810Z,101223.91
2018-02-14T09:32:59.096Z,101206.23
2018-02-14T09:37:53.399Z,101212.07
2018-02-14T09:42:47.784Z,101201.48
2018-02-14T09:47:42.069Z,101204.18
2018-02-14T09:52:36.366Z,101222.09
2018-02-14T09:57:30.676Z,101208.12
2018-02-14T10:02:25.068Z,101200.78
2018-02-14T10:07:19.843Z,101219.84
2018-02-14T10:12:14.906Z,101214.31
2018-02-14T10:17:09.236Z,101215.92
2018-02-14T10:22:03.537Z,101226.02
2018-02-14T10:26:57.819Z,101218.16
2018-02-14T10:31:52.108Z,101226.90
2018-02-14T10:36:46.394Z,101232.03
2018-02-14T10:41:41.714Z,101258.49
2018-02-14T10:46:36.018Z,101226.85
2018-02-14T10:51:30.378Z,101215.05
2018-02-14T10:56:25.412Z,101226.11
2018-02-14T11:01:25.873Z,101212.09
2018-02-14T11:06:26.184Z,101212.03
2018-02-14T11:11:20.568Z,101224.61
2018-02-14T11:16:15.052Z,101225.88
2018-02-14T11:21:09.324Z,101217.16
2018-02-14T11:26:04.466Z,101221.83
2018-02-14T11:30:58.873Z,101227.43
2018-02-14T11:35:53.333Z,101206.80
2018-02-14T11:40:48.373Z,101206.22
2018-02-14T11:45:42.655Z,101235.69
2018-02-14T11:50:37.690Z,101201.47
2018-02-14T11:55:32.039Z,101206.16
2018-02-14T12:00:26.523Z,101210.79
2018-02-14T12:05:20.792Z,101211.08
2018-02-14T12:10:16.038Z,101202.64
2018-02-14T12:15:10.333Z,101211.66
2018-02-14T12:20:04.634Z,101202.41
2018-02-14T12:24:58.915Z,101203.09
2018-02-14T12:29:53.945Z,101199.05
2018-02-14T12:34:48.242Z,101190.04
2018-02-14T12:39:42.537Z,101192.86
2018-02-14T12:44:36.824Z,101179.67
2018-02-14T12:49:31.874Z,101178.98
2018-02-14T12:54:26.162Z,101169.28
2018-02-14T12:59:20.452Z,101162.56
2018-02-14T13:04:15.498Z,101157.94
2018-02-14T13:09:09.964Z,101142.33
2018-02-14T13:14:04.269Z,101151.81
2018-02-14T13:18:59.394Z,101141.06
2018-02-14T13:23:54.424Z,101149.98
2018-02-14T13:28:48.697Z,101154.75
2018-02-14T13:33:42.956Z,101148.09
2018-02-14T13:38:37.445Z,101143.94
2018-02-14T13:43:31.792Z,101147.68
2018-02-14T13:48:26.058Z,101146.63
2018-02-14T13:53:20.530Z,101121.50
2018-02-14T13:58:15.774Z,101130.02
2018-02-14T14:03:10.808Z,101117.38
2018-02-14T14:08:05.092Z,101153.98
2018-02-14T14:12:59.352Z,101139.06
2018-02-14T14:17:54.452Z,101128.47
2018-02-14T14:22:48.840Z,101120.06
2018-02-14T14:27:43.116Z,101124.05
2018-02-14T14:32:37.457Z,101113.98
2018-02-14T14:37:32.493Z,101125.41
2018-02-14T14:42:27.571Z,101115.44
2018-02-14T14:47:21.749Z,101117.23
2018-02-14T14:52:16.046Z,101122.05
2018-02-14T14:57:10.469Z,101125.98
2018-02-14T15:02:07.736Z,101140.03
2018-02-14T15:07:02.047Z,101131.34
2018-02-14T15:11:56.342Z,101145.91
2018-02-14T15:16:50.753Z,101128.45
2018-02-14T15:21:45.092Z,101135.99
2018-02-14T15:26:40.286Z,101129.92
2018-02-14T15:31:34.834Z,101118.72
2018-02-14T15:36:30.099Z,101116.68
2018-02-14T15:41:24.634Z,101118.23
2018-02-14T15:46:21.584Z,101117.54
2018-02-14T15:51:15.990Z,101138.36
2018-02-14T15:56:10.466Z,101139.88
2018-02-14T16:01:04.739Z,101145.78
2018-02-14T16:05:59.790Z,101160.81
2018-02-14T16:10:54.187Z,101144.86
2018-02-14T16:15:48.715Z,101145.90
2018-02-14T16:20:42.977Z,101139.44
2018-02-14T16:25:37.459Z,101146.59
2018-02-14T16:30:32.564Z,101143.62
2018-02-14T16:35:27.683Z,101151.33
2018-02-14T16:40:22.050Z,101161.17
2018-02-14T16:45:16.759Z,101159.70
2018-02-14T16:50:11.267Z,101176.02
2018-02-14T16:55:05.775Z,101172.34
2018-02-14T17:00:00.083Z,101182.09
2018-02-14T17:04:54.720Z,101205.44
2018-02-14T17:09:49.815Z,101214.34
2018-02-14T17:14:44.106Z,101218.54
2018-02-14T17:19:38.622Z,101213.84
2018-02-14T17:24:32.903Z,101210.92
2018-02-14T17:29:27.209Z,101211.09
2018-02-14T17:34:21.640Z,101215.95
2018-02-14T17:39:17.434Z,101185.92
2018-02-14T17:44:14.739Z,101176.41
2018-02-14T17:49:09.711Z,101166.54
2018-02-14T17:54:04.509Z,101164.86
2018-02-14T17:58:59.682Z,101177.13
2018-02-14T18:03:54.898Z,101187.53
2018-02-14T18:08:49.816Z,101176.27
2018-02-14T18:13:44.914Z,101175.48
2018-02-14T18:18:39.655Z,101174.23
2018-02-14T18:23:34.033Z,101176.89
2018-02-14T18:28:28.549Z,101179.09
2018-02-14T18:33:22.982Z,101155.16
2018-02-14T18:38:19.244Z,101162.73
2018-02-14T18:43:14.430Z,101158.41
2018-02-14T18:48:08.910Z,101164.06
2018-02-14T18:53:03.462Z,101153.27
2018-02-14T18:57:58.695Z,101148.13
2018-02-14T19:02:53.937Z,101132.07
2018-02-14T19:07:49.017Z,101115.55
2018-02-14T19:12:43.315Z,101123.83
2018-02-14T19:17:37.586Z,101119.44
2018-02-14T19:22:31.903Z,101125.45
2018-02-14T19:27:26.264Z,101099.14
2018-02-14T19:32:20.565Z,101093.38
2018-02-14T19:37:15.175Z,101107.79
2018-02-14T19:42:09.747Z,101102.53
2018-02-14T19:47:05.337Z,101094.68
2018-02-14T19:51:59.994Z,101097.77
2018-02-14T19:56:56.492Z,101101.28
2018-02-14T20:01:50.847Z,101105.27
2018-02-14T20:06:46.120Z,101112.34
2018-02-14T20:11:40.761Z,101112.03
2018-02-14T20:16:35.047Z,101105.22
2018-02-14T20:21:29.475Z,101110.63
2018-02-14T20:26:23.994Z,101102.48
2018-02-14T20:31:19.225Z,101101.20
2018-02-14T20:36:13.388Z,101103.88
2018-02-14T20:41:07.664Z,101106.55
2018-02-14T20:46:02.094Z,101100.92
2018-02-14T20:50:56.410Z,101087.86
2018-02-14T20:55:50.791Z,101083.06
2018-02-14T21:00:45.088Z,101102.11
2018-02-14T21:05:39.829Z,101071.50
2018-02-14T21:10:34.174Z,101074.39
2018-02-14T21:15:28.573Z,101084.72
2018-02-14T21:20:23.147Z,101077.65
2018-02-14T21:25:17.638Z,101069.74
2018-02-14T21:30:12.112Z,101073.59
2018-02-14T21:35:06.406Z,101066.66
2018-02-14T21:40:00.756Z,101071.02
2018-02-14T21:44:55.206Z,101058.84
2018-02-14T21:49:49.674Z,101066.22
2018-02-14T21:54:45.163Z,101067.13
2018-02-14T21:59:39.666Z,101058.78
2018-02-14T22:04:33.980Z,101051.84
2018-02-14T22:09:28.539Z,101044.44
2018-02-14T22:14:23.067Z,101009.63
2018-02-14T22:19:20.867Z,101008.75
2018-02-14T22:24:15.280Z,100994.41
2018-02-14T22:29:09.621Z,100962.64
2018-02-14T22:34:04.878Z,100950.45
2018-02-14T22:38:59.543Z,100958.72
2018-02-14T22:43:54.588Z,100958.25
2018-02-14T22:48:48.877Z,100946.85
2018-02-14T22:53:44.067Z,100964.20
2018-02-14T22:58:38.345Z,100971.11
2018-02-14T23:03:32.639Z,100981.16
2018-02-14T23:08:26.917Z,100997.14
2018-02-14T23:13:21.197Z,100999.72
2018-02-14T23:18:16.246Z,101008.91
2018-02-14T23:23:10.792Z,101000.92
2018-02-14T23:28:04.848Z,101013.52
2018-02-14T23:32:59.120Z,101009.97
2018-02-14T23:37:54.173Z,100979.78
2018-02-14T23:42:48.478Z,100974.88
2018-02-14T23:47:42.774Z,100947.34
2018-02-14T23:52:37.144Z,100926.06
2018-02-14T23:57:32.193Z,100923.37
